ADDS METAR Data INFO
IDs: Format: Raw Decoded Include TAF

Data at: 0902 UTC 20 Oct 2017

KIPJ 200850Z AUTO 00000KT 10SM CLR 06/06 A3023 RMK AO2 T00600058
KIPJ 200830Z AUTO 00000KT 10SM CLR 06/06 A3023 RMK AO2 T00590055
KIPJ 200810Z AUTO 00000KT 10SM CLR 07/07 A3023 RMK AO2 T00660066
KIPJ 200750Z AUTO 00000KT 10SM CLR 06/06 A3024 RMK AO2 T00580057
KIPJ 200730Z AUTO 00000KT 10SM CLR 06/06 A3024 RMK AO2 T00570057
KIPJ 200710Z AUTO 00000KT 10SM CLR 06/06 A3025 RMK AO2 T00610061
KIPJ 200650Z AUTO 00000KT 10SM CLR 06/06 A3025 RMK AO2 T00570055
KIPJ 200630Z AUTO 00000KT 10SM CLR 06/06 A3025 RMK AO2 T00620062
KIPJ 200610Z AUTO 26003KT 10SM CLR 06/06 A3025 RMK AO2 T00610059
KIPJ 200550Z AUTO 00000KT 10SM CLR 07/07 A3025 RMK AO2 T00680066 10124 20065 402370025
KIPJ 200530Z AUTO 00000KT 10SM CLR 07/07 A3025 RMK AO2 T00700068
KIPJ 200510Z AUTO 00000KT 10SM CLR 07/06 A3025 RMK AO2 T00660063
KIPJ 200450Z AUTO 00000KT 10SM CLR 07/07 A3025 RMK AO2 T00700068
KIPJ 200430Z AUTO 00000KT 10SM CLR 07/07 A3025 RMK AO2 T00740071
KIPJ 200410Z AUTO 00000KT 10SM CLR 08/08 A3026 RMK AO2 T00780076
KIPJ 200350Z AUTO 00000KT 10SM CLR 08/07 A3026 RMK AO2 T00770072
KIPJ 200330Z AUTO 00000KT 10SM CLR 08/08 A3026 RMK AO2 T00790076
KIPJ 200310Z AUTO 00000KT 10SM CLR 08/08 A3026 RMK AO2 T00800076
KIPJ 200250Z AUTO 00000KT 10SM CLR 09/08 A3026 RMK AO2 T00850081
KIPJ 200230Z AUTO 00000KT 10SM CLR 08/08 A3025 RMK AO2 T00840078
KIPJ 200210Z AUTO 00000KT 10SM CLR 09/08 A3025 RMK AO2 T00860075
KIPJ 200150Z AUTO 00000KT 10SM CLR 09/08 A3025 RMK AO2 T00910077
KIPJ 200130Z AUTO 00000KT 10SM CLR 10/08 A3025 RMK AO2 T00980084
KIPJ 200110Z AUTO 00000KT 10SM CLR 10/08 A3025 RMK AO2 T00960083
KIPJ 200050Z AUTO 00000KT 10SM CLR 11/09 A3025 RMK AO2 T01060091
KIPJ 200030Z AUTO 00000KT 10SM CLR 11/09 A3024 RMK AO2 T01060087
KIPJ 200010Z AUTO 00000KT 10SM CLR 11/09 A3024 RMK AO2 T01110089
KIPJ 192350Z AUTO 00000KT 10SM CLR 13/10 A3024 RMK AO2 T01250097 10237 20125
KIPJ 192330Z AUTO 00000KT 10SM CLR 13/09 A3023 RMK AO2 T01310093
KIPJ 192310Z AUTO 00000KT 10SM CLR 14/10 A3022 RMK AO2 T01440096
KIPJ 192250Z AUTO 00000KT 10SM CLR 16/10 A3022 RMK AO2 T01640101
KIPJ 192230Z AUTO 00000KT 10SM CLR 19/08 A3022 RMK AO2 T01890082
KIPJ 192210Z AUTO 00000KT 10SM CLR 22/04 A3022 RMK AO2 T02190044
KIPJ 192150Z AUTO 00000KT 10SM CLR 22/05 A3022 RMK AO2 T02240045
KIPJ 192130Z AUTO 00000KT 10SM CLR 23/04 A3022 RMK AO2 T02300035
KIPJ 192110Z AUTO 00000KT 10SM CLR 23/04 A3023 RMK AO2 T02290037
KIPJ 192050Z AUTO 00000KT 10SM CLR 23/02 A3023 RMK AO2 T02340023
KIPJ 192030Z AUTO 00000KT 10SM CLR 23/03 A3023 RMK AO2 T02330032
KIPJ 192010Z AUTO 00000KT 10SM CLR 23/03 A3024 RMK AO2 T02290028
KIPJ 191950Z AUTO 00000KT 10SM CLR 23/03 A3024 RMK AO2 T02300030
KIPJ 191930Z AUTO 04003KT 10SM CLR 23/03 A3025 RMK AO2 T02270030
KIPJ 191910Z AUTO 00000KT 10SM CLR 22/03 A3025 RMK AO2 T02220026
KIPJ 191850Z AUTO 00000KT 10SM CLR 22/03 A3026 RMK AO2 T02230026
KIPJ 191830Z AUTO 24003KT 10SM CLR 22/03 A3026 RMK AO2 T02190030
KIPJ 191810Z AUTO 00000KT 10SM CLR 22/03 A3028 RMK AO2 T02150031
KIPJ 191750Z AUTO 00000KT 10SM CLR 21/03 A3028 RMK AO2 T02090032 10209 20028
KIPJ 191730Z AUTO 25004KT 10SM CLR 21/04 A3029 RMK AO2 T02050044
KIPJ 191710Z AUTO 26003KT 10SM CLR 21/05 A3030 RMK AO2 T02050048
KIPJ 191650Z AUTO 00000KT 10SM CLR 20/05 A3031 RMK AO2 T01970048
KIPJ 191630Z AUTO 31003KT 10SM CLR 19/05 A3032 RMK AO2 T01910051
KIPJ 191555Z AUTO 24003KT 10SM CLR 18/05 A3033 RMK AO2 T01780046
KIPJ 191550Z AUTO 00000KT 10SM CLR 18/06 A3033 RMK AO2 T01750060
KIPJ 191530Z AUTO 00000KT 10SM CLR 17/07 A3033 RMK AO2 T01710071
KIPJ 191510Z AUTO 00000KT 10SM CLR 16/08 A3034 RMK AO2 T01640076
KIPJ 191450Z AUTO 00000KT 10SM CLR 15/08 A3034 RMK AO2 T01510080
KIPJ 191430Z AUTO 00000KT 10SM CLR 14/08 A3034 RMK AO2 T01370083
KIPJ 191410Z AUTO 00000KT 10SM CLR 13/08 A3034 RMK AO2 T01250084
KIPJ 191350Z AUTO 00000KT 10SM CLR 11/08 A3034 RMK AO2 T01100082
KIPJ 191330Z AUTO 00000KT 10SM CLR 10/08 A3034 RMK AO2 T00950084
KIPJ 191310Z AUTO 00000KT 10SM CLR 08/08 A3033 RMK AO2 T00840081
KIPJ 191250Z AUTO 00000KT 10SM CLR 06/06 A3033 RMK AO2 T00600060
KIPJ 191230Z AUTO 00000KT 10SM CLR 04/04 A3032 RMK AO2 T00410041
KIPJ 191210Z AUTO 00000KT 10SM CLR 03/03 A3031 RMK AO2 T00320032
KIPJ 191150Z AUTO 00000KT 10SM CLR 03/03 A3031 RMK AO2 T00270027 10049 20025
KIPJ 191130Z AUTO 00000KT 10SM CLR 03/03 A3031 RMK AO2 T00290029
KIPJ 191050Z AUTO 00000KT 10SM CLR 03/03 A3031 RMK AO2 T00330033
KIPJ 191030Z AUTO 00000KT 10SM CLR 03/03 A3031 RMK AO2 T00320032
KIPJ 191010Z AUTO 00000KT 10SM CLR 04/04 A3030 RMK AO2 T00350035
KIPJ 190950Z AUTO 00000KT 10SM CLR 04/04 A3030 RMK AO2 T00350035
KIPJ 190930Z AUTO 00000KT 10SM CLR 03/03 A3030 RMK AO2 T00340034
KIPJ 190910Z AUTO 00000KT 10SM CLR 03/03 A3030 RMK AO2 T00340034
KIPJ 190850Z AUTO 00000KT 10SM CLR 03/03 A3030 RMK AO2 T00340034
KIPJ 190830Z AUTO 00000KT 10SM CLR 04/04 A3030 RMK AO2 T00410041
KIPJ 190810Z AUTO 00000KT 10SM CLR 04/04 A3030 RMK AO2 T00390039
KIPJ 190750Z AUTO 00000KT 10SM CLR 04/04 A3030 RMK AO2 T00410041
KIPJ 190730Z AUTO 00000KT 10SM CLR 04/04 A3030 RMK AO2 T00420042
KIPJ 190710Z AUTO 00000KT 10SM CLR 04/04 A3031 RMK AO2 T00420041
KIPJ 190650Z AUTO 00000KT 10SM CLR 04/04 A3031 RMK AO2 T00430042
KIPJ 190630Z AUTO 00000KT 10SM CLR 05/04 A3031 RMK AO2 T00450043
KIPJ 190610Z AUTO 00000KT 10SM CLR 05/05 A3031 RMK AO2 T00460045
KIPJ 190550Z AUTO 00000KT 10SM CLR 05/05 A3031 RMK AO2 T00500048 10103 20049 402010027
KIPJ 190530Z AUTO 00000KT 10SM CLR 05/05 A3032 RMK AO2 T00500050
KIPJ 190510Z AUTO 00000KT 10SM CLR 05/05 A3032 RMK AO2 T00520052
KIPJ 190450Z AUTO 00000KT 10SM CLR 05/05 A3033 RMK AO2 T00520052
KIPJ 190430Z AUTO 00000KT 10SM CLR 05/05 A3033 RMK AO2 T00530051
KIPJ 190410Z AUTO 00000KT 10SM CLR 06/06 A3033 RMK AO2 T00620062
KIPJ 190350Z AUTO 00000KT 10SM CLR 06/06 A3033 RMK AO2 T00600058
KIPJ 190330Z AUTO 00000KT 10SM CLR 06/06 A3033 RMK AO2 T00620060
KIPJ 190310Z AUTO 00000KT 10SM CLR 07/06 A3033 RMK AO2 T00650062
KIPJ 190250Z AUTO 00000KT 10SM CLR 07/07 A3033 RMK AO2 T00690065
KIPJ 190230Z AUTO 00000KT 10SM CLR 07/07 A3033 RMK AO2 T00730067
KIPJ 190210Z AUTO 00000KT 10SM CLR 08/07 A3033 RMK AO2 T00760069
KIPJ 190150Z AUTO 00000KT 10SM CLR 08/07 A3033 RMK AO2 T00800070
KIPJ 190130Z AUTO 00000KT 10SM CLR 08/07 A3033 RMK AO2 T00800068
KIPJ 190110Z AUTO 00000KT 10SM CLR 09/07 A3033 RMK AO2 T00850073
KIPJ 190050Z AUTO 00000KT 10SM CLR 09/08 A3033 RMK AO2 T00900075
KIPJ 190030Z AUTO 00000KT 10SM CLR 09/07 A3032 RMK AO2 T00910074
KIPJ 190010Z AUTO 00000KT 10SM CLR 10/08 A3032 RMK AO2 T00980078
KIPJ 182350Z AUTO 00000KT 10SM CLR 10/08 A3032 RMK AO2 T01040077 10201 20104
KIPJ 182330Z AUTO 00000KT 10SM CLR 11/08 A3031 RMK AO2 T01090076
KIPJ 182310Z AUTO 00000KT 10SM CLR 12/08 A3031 RMK AO2 T01220078
KIPJ 182250Z AUTO 00000KT 10SM CLR 15/07 A3031 RMK AO2 T01450071
KIPJ 182230Z AUTO 00000KT 10SM CLR 17/04 A3031 RMK AO2 T01730044
KIPJ 182210Z AUTO 00000KT 10SM CLR 19/04 A3031 RMK AO2 T01850039
KIPJ 182150Z AUTO 10003KT 10SM CLR 19/03 A3030 RMK AO2 T01910033
KIPJ 182130Z AUTO 09003KT 10SM CLR 20/03 A3030 RMK AO2 T01960030
KIPJ 182110Z AUTO 05003KT 10SM CLR 20/03 A3030 RMK AO2 T01980025